createdAt,value
2018-07-27T00:00:23.783Z,19.50
2018-07-27T00:02:51.380Z,19.50
2018-07-27T00:05:18.998Z,19.50
2018-07-27T00:07:46.595Z,19.40
2018-07-27T00:10:15.107Z,19.40
2018-07-27T00:12:42.714Z,19.30
2018-07-27T00:15:10.372Z,19.40
2018-07-27T00:17:37.967Z,19.30
2018-07-27T00:20:05.591Z,19.40
2018-07-27T00:22:33.189Z,19.30
2018-07-27T00:25:00.829Z,19.20
2018-07-27T00:27:28.458Z,19.20
2018-07-27T00:29:56.120Z,19.20
2018-07-27T00:32:23.962Z,19.30
2018-07-27T00:34:51.579Z,19.20
2018-07-27T00:37:19.179Z,19.20
2018-07-27T00:39:46.871Z,19.30
2018-07-27T00:42:14.470Z,19.30
2018-07-27T00:44:42.088Z,19.20
2018-07-27T00:47:09.743Z,19.20
2018-07-27T00:49:37.348Z,19.10
2018-07-27T00:52:04.961Z,19.10
2018-07-27T00:54:32.567Z,19.10
2018-07-27T00:57:00.178Z,19.20
2018-07-27T00:59:27.775Z,19.20
2018-07-27T01:01:55.392Z,19.20
2018-07-27T01:04:23.013Z,19.20
2018-07-27T01:06:50.635Z,19.30
2018-07-27T01:09:18.242Z,19.30
2018-07-27T01:11:45.883Z,19.30
2018-07-27T01:14:13.484Z,19.30
2018-07-27T01:19:08.491Z,19.30
2018-07-27T01:21:36.129Z,19.20
2018-07-27T01:24:03.727Z,19.20
2018-07-27T01:26:31.348Z,19.00
2018-07-27T01:28:58.972Z,18.90
2018-07-27T01:31:26.593Z,18.90
2018-07-27T01:33:54.247Z,18.90
2018-07-27T01:36:22.090Z,19.00
2018-07-27T01:38:49.700Z,19.00
2018-07-27T01:41:17.319Z,19.00
2018-07-27T01:43:44.911Z,18.80
2018-07-27T01:46:12.527Z,18.80
2018-07-27T01:48:40.127Z,18.90
2018-07-27T01:51:07.784Z,18.90
2018-07-27T01:53:35.414Z,18.90
2018-07-27T01:56:03.038Z,19.00
2018-07-27T01:58:30.632Z,19.10
2018-07-27T02:00:58.231Z,19.10
2018-07-27T02:03:25.851Z,19.10
2018-07-27T02:05:53.579Z,19.00
2018-07-27T02:08:21.224Z,19.10
2018-07-27T02:10:48.876Z,19.10
2018-07-27T02:13:16.490Z,19.10
2018-07-27T02:15:44.127Z,19.20
2018-07-27T02:18:11.742Z,19.10
2018-07-27T02:20:39.351Z,19.20
2018-07-27T02:23:06.967Z,19.20
2018-07-27T02:25:34.562Z,19.10
2018-07-27T02:28:02.174Z,19.10
2018-07-27T02:30:29.779Z,19.10
2018-07-27T02:32:57.405Z,18.90
2018-07-27T02:35:25.007Z,18.70
2018-07-27T02:37:52.911Z,18.60
2018-07-27T02:40:20.503Z,18.50
2018-07-27T02:42:48.145Z,18.40
2018-07-27T02:45:15.739Z,18.50
2018-07-27T02:47:47.669Z,18.60
2018-07-27T02:50:15.359Z,18.70
2018-07-27T02:52:42.984Z,18.80
2018-07-27T02:55:10.584Z,18.60
2018-07-27T02:57:38.204Z,18.50
2018-07-27T03:00:06.181Z,18.40
2018-07-27T03:02:33.979Z,18.40
2018-07-27T03:05:01.596Z,18.30
2018-07-27T03:07:29.216Z,18.30
2018-07-27T03:09:56.819Z,18.30
2018-07-27T03:12:24.419Z,18.30
2018-07-27T03:14:52.061Z,18.10
2018-07-27T03:17:19.665Z,17.90
2018-07-27T03:19:47.279Z,17.80
2018-07-27T03:22:14.875Z,17.80
2018-07-27T03:24:42.494Z,17.70
2018-07-27T03:27:10.115Z,17.80
2018-07-27T03:29:37.727Z,17.90
2018-07-27T03:32:05.327Z,17.90
2018-07-27T03:34:32.953Z,18.10
2018-07-27T03:37:00.551Z,18.10
2018-07-27T03:39:28.164Z,18.30
2018-07-27T03:41:55.764Z,18.40
2018-07-27T03:44:23.386Z,18.50
2018-07-27T03:46:51.055Z,18.60
2018-07-27T03:49:18.667Z,18.80
2018-07-27T03:51:46.263Z,18.60
2018-07-27T03:54:13.879Z,18.30
2018-07-27T03:56:41.483Z,18.30
2018-07-27T03:59:09.095Z,18.40
2018-07-27T04:01:36.691Z,18.50
2018-07-27T04:04:04.316Z,18.60
2018-07-27T04:06:31.907Z,18.70
2018-07-27T04:08:59.529Z,18.70
2018-07-27T04:11:27.126Z,18.60
2018-07-27T04:13:54.775Z,18.50
2018-07-27T04:16:22.391Z,18.40
2018-07-27T04:18:49.983Z,18.50
2018-07-27T04:21:17.600Z,18.70
2018-07-27T04:23:45.194Z,18.80
2018-07-27T04:26:12.864Z,18.90
2018-07-27T04:28:40.447Z,18.90
2018-07-27T04:31:08.055Z,18.90
2018-07-27T04:33:35.655Z,19.00
2018-07-27T04:36:03.283Z,19.10
2018-07-27T04:38:30.875Z,19.10
2018-07-27T04:40:58.583Z,19.20
2018-07-27T04:43:26.182Z,19.00
2018-07-27T04:45:53.808Z,19.10
2018-07-27T04:48:21.407Z,19.20
2018-07-27T04:50:49.023Z,19.30
2018-07-27T04:53:16.620Z,19.30
2018-07-27T04:55:44.237Z,19.40
2018-07-27T04:58:11.831Z,19.40
2018-07-27T05:00:39.447Z,19.50
2018-07-27T05:03:07.040Z,19.60
2018-07-27T05:08:02.001Z,19.70
2018-07-27T05:10:35.104Z,19.80
2018-07-27T05:13:02.699Z,19.80
2018-07-27T05:15:30.331Z,19.90
2018-07-27T05:17:57.923Z,19.80
2018-07-27T05:20:25.579Z,19.80
2018-07-27T05:22:53.191Z,19.80
2018-07-27T05:25:20.810Z,19.90
2018-07-27T05:27:48.400Z,19.90
2018-07-27T05:30:15.995Z,19.90
2018-07-27T05:32:43.607Z,19.80
2018-07-27T05:35:11.207Z,19.80
2018-07-27T05:37:38.823Z,19.80
2018-07-27T05:40:06.679Z,19.70
2018-07-27T05:42:34.310Z,19.80
2018-07-27T05:45:02.008Z,19.80
2018-07-27T05:47:29.625Z,19.80
2018-07-27T05:49:58.617Z,19.90
2018-07-27T05:52:26.240Z,19.90
2018-07-27T05:54:53.848Z,20.00
2018-07-27T05:57:22.539Z,20.00
2018-07-27T05:59:50.227Z,20.00
2018-07-27T06:02:17.877Z,20.10
2018-07-27T06:04:45.487Z,20.10
2018-07-27T06:07:13.679Z,20.20
2018-07-27T06:09:41.274Z,20.20
2018-07-27T06:12:08.899Z,20.30
2018-07-27T06:14:37.787Z,20.40
2018-07-27T06:17:05.371Z,20.50
2018-07-27T06:19:32.967Z,20.60
2018-07-27T06:22:00.579Z,20.60
2018-07-27T06:24:29.650Z,20.70
2018-07-27T06:26:57.267Z,20.80
2018-07-27T06:29:24.864Z,20.90
2018-07-27T06:31:52.497Z,21.00
2018-07-27T06:34:20.100Z,21.10
2018-07-27T06:36:47.720Z,21.20
2018-07-27T06:39:15.344Z,21.30
2018-07-27T06:41:42.948Z,21.40
2018-07-27T06:44:10.569Z,21.50
2018-07-27T06:46:38.167Z,21.70
2018-07-27T06:49:05.786Z,21.60
2018-07-27T06:51:33.388Z,22.00
2018-07-27T06:54:01.004Z,22.40
2018-07-27T06:56:28.610Z,22.80
2018-07-27T06:58:56.227Z,22.80
2018-07-27T07:01:23.823Z,22.80
2018-07-27T07:03:51.447Z,22.90
2018-07-27T07:06:19.053Z,23.10
2018-07-27T07:08:46.680Z,23.40
2018-07-27T07:11:14.295Z,23.10
2018-07-27T07:13:41.999Z,22.90
2018-07-27T07:16:09.615Z,22.70
2018-07-27T07:18:37.247Z,22.40
2018-07-27T07:21:04.843Z,22.50
2018-07-27T07:23:32.467Z,22.50
2018-07-27T07:26:00.379Z,22.40
2018-07-27T07:28:27.835Z,22.20
2018-07-27T07:30:55.426Z,21.80
2018-07-27T07:33:23.043Z,21.60
2018-07-27T07:35:50.644Z,21.50
2018-07-27T07:40:45.787Z,21.70
2018-07-27T07:43:13.409Z,21.60
2018-07-27T07:45:41.027Z,21.60
2018-07-27T07:48:08.619Z,21.90
2018-07-27T07:50:36.246Z,22.20
2018-07-27T07:53:03.847Z,22.50
2018-07-27T07:55:31.460Z,22.80
2018-07-27T07:57:59.056Z,22.80
2018-07-27T08:00:26.668Z,23.70
2018-07-27T08:05:21.632Z,24.50
2018-07-27T08:07:49.235Z,24.70
2018-07-27T08:10:16.852Z,24.40
2018-07-27T08:12:44.447Z,24.20
2018-07-27T08:15:12.078Z,23.80
2018-07-27T08:17:39.681Z,23.40
2018-07-27T08:20:07.304Z,23.40
2018-07-27T08:22:34.903Z,23.50
2018-07-27T08:25:02.523Z,23.50
2018-07-27T08:27:30.115Z,23.70
2018-07-27T08:29:57.731Z,23.80
2018-07-27T08:32:25.328Z,23.80
2018-07-27T08:34:54.767Z,23.80
2018-07-27T08:37:22.386Z,23.70
2018-07-27T08:39:50.004Z,23.60
2018-07-27T08:42:17.616Z,23.50
2018-07-27T08:44:45.239Z,23.00
2018-07-27T08:47:12.874Z,22.80
2018-07-27T08:49:40.479Z,22.70
2018-07-27T08:52:08.077Z,22.60
2018-07-27T08:54:35.711Z,22.70
2018-07-27T08:57:03.328Z,22.80
2018-07-27T08:59:30.975Z,22.90
2018-07-27T09:04:26.043Z,22.40
2018-07-27T09:06:53.660Z,22.60
2018-07-27T09:09:21.279Z,22.80
2018-07-27T09:11:48.899Z,23.10
2018-07-27T09:14:16.499Z,23.40
2018-07-27T09:16:44.141Z,23.80
2018-07-27T09:19:11.739Z,24.30
2018-07-27T09:21:39.982Z,24.20
2018-07-27T09:24:07.619Z,23.90
2018-07-27T09:26:35.231Z,23.50
2018-07-27T09:29:02.843Z,23.40
2018-07-27T09:31:30.554Z,23.10
2018-07-27T09:33:58.155Z,23.30
2018-07-27T09:36:25.806Z,23.60
2018-07-27T09:38:53.408Z,23.90
2018-07-27T09:41:21.023Z,23.40
2018-07-27T09:43:48.620Z,23.10
2018-07-27T09:46:16.238Z,23.20
2018-07-27T09:48:48.148Z,23.80
2018-07-27T09:51:15.764Z,24.20
2018-07-27T09:53:43.397Z,24.60
2018-07-27T09:56:11.815Z,24.40
2018-07-27T09:58:39.419Z,23.70
2018-07-27T10:01:08.739Z,23.40
2018-07-27T10:03:36.333Z,23.20
2018-07-27T10:06:03.944Z,23.10
2018-07-27T10:08:31.564Z,23.00
2018-07-27T10:10:59.164Z,23.40
2018-07-27T10:13:26.776Z,23.90
2018-07-27T10:15:54.399Z,23.90
2018-07-27T10:18:22.014Z,23.50
2018-07-27T10:20:49.620Z,23.70
2018-07-27T10:23:17.239Z,24.50
2018-07-27T10:25:44.835Z,24.90
2018-07-27T10:28:12.455Z,25.50
2018-07-27T10:30:40.111Z,25.50
2018-07-27T10:33:07.727Z,25.50
2018-07-27T10:35:35.323Z,24.80
2018-07-27T10:38:02.937Z,24.80
2018-07-27T10:40:30.541Z,24.20
2018-07-27T10:42:58.155Z,24.30
2018-07-27T10:45:25.759Z,24.50
2018-07-27T10:47:53.378Z,24.70
2018-07-27T10:50:21.073Z,25.30
2018-07-27T10:52:48.634Z,25.90
2018-07-27T10:55:16.227Z,26.00
2018-07-27T10:57:43.887Z,25.60
2018-07-27T11:00:13.319Z,25.00
2018-07-27T11:02:41.117Z,24.80
2018-07-27T11:05:08.783Z,24.90
2018-07-27T11:07:36.409Z,25.20
2018-07-27T11:10:04.525Z,25.30
2018-07-27T11:12:32.123Z,25.00
2018-07-27T11:14:59.760Z,24.50
2018-07-27T11:17:27.433Z,24.60
2018-07-27T11:19:55.016Z,25.10
2018-07-27T11:22:22.615Z,25.00
2018-07-27T11:24:50.236Z,24.60
2018-07-27T11:27:17.835Z,24.40
2018-07-27T11:29:45.459Z,24.70
2018-07-27T11:32:13.056Z,24.60
2018-07-27T11:34:40.751Z,24.30
2018-07-27T11:37:08.363Z,23.90
2018-07-27T11:39:36.004Z,23.80
2018-07-27T11:42:03.608Z,23.90
2018-07-27T11:44:31.222Z,24.00
2018-07-27T11:46:58.824Z,24.40
2018-07-27T11:49:26.466Z,24.60
2018-07-27T11:51:54.072Z,25.10
2018-07-27T11:54:21.687Z,25.60
2018-07-27T11:56:49.295Z,25.90
2018-07-27T11:59:16.915Z,26.10
2018-07-27T12:01:44.556Z,26.60
2018-07-27T12:04:12.175Z,26.60
2018-07-27T12:06:40.652Z,26.70
2018-07-27T12:09:08.762Z,26.80
2018-07-27T12:11:36.360Z,26.90
2018-07-27T12:14:04.106Z,27.00
2018-07-27T12:16:31.664Z,27.00
2018-07-27T12:18:59.310Z,26.90
2018-07-27T12:21:27.787Z,26.90
2018-07-27T12:23:55.151Z,26.80
2018-07-27T12:28:50.363Z,25.90
2018-07-27T12:31:17.987Z,25.50
2018-07-27T12:33:45.587Z,25.20
2018-07-27T12:36:13.212Z,24.30
2018-07-27T12:38:40.823Z,23.40
2018-07-27T12:41:08.443Z,22.80
2018-07-27T12:43:36.035Z,22.60
2018-07-27T12:46:03.652Z,22.50
2018-07-27T12:48:31.260Z,22.50
2018-07-27T12:50:58.880Z,22.40
2018-07-27T12:53:26.540Z,22.30
2018-07-27T12:58:21.520Z,22.20
2018-07-27T13:00:49.136Z,22.10
2018-07-27T13:03:16.763Z,22.00
2018-07-27T13:05:44.403Z,21.70
2018-07-27T13:08:12.403Z,21.70
2018-07-27T13:10:40.002Z,21.70
2018-07-27T13:13:07.652Z,21.90
2018-07-27T13:15:35.285Z,22.10
2018-07-27T13:18:02.920Z,22.30
2018-07-27T13:20:36.131Z,22.50
2018-07-27T13:23:03.751Z,22.70
2018-07-27T13:25:31.361Z,22.90
2018-07-27T13:27:59.004Z,23.10
2018-07-27T13:30:26.612Z,23.30
2018-07-27T13:32:54.235Z,23.50
2018-07-27T13:35:21.836Z,23.80
2018-07-27T13:37:49.789Z,24.10
2018-07-27T13:40:17.390Z,24.30
2018-07-27T13:42:45.007Z,24.50
2018-07-27T13:45:12.623Z,24.50
2018-07-27T13:47:40.234Z,24.40
2018-07-27T13:50:07.831Z,24.60
2018-07-27T13:52:35.449Z,24.70
2018-07-27T13:57:30.470Z,24.90
2018-07-27T13:59:58.155Z,25.00
2018-07-27T14:02:25.771Z,25.20
2018-07-27T14:04:53.391Z,25.40
2018-07-27T14:07:21.075Z,25.60
2018-07-27T14:09:48.695Z,25.80
2018-07-27T14:12:16.302Z,25.80
2018-07-27T14:14:43.925Z,25.90
2018-07-27T14:17:11.541Z,25.90
2018-07-27T14:19:39.163Z,25.80
2018-07-27T14:22:06.855Z,26.00
2018-07-27T14:24:34.470Z,26.10
2018-07-27T14:27:02.077Z,25.90
2018-07-27T14:29:29.698Z,25.70
2018-07-27T14:31:57.406Z,25.50
2018-07-27T14:34:25.031Z,25.10
2018-07-27T14:36:52.644Z,24.90
2018-07-27T14:39:20.267Z,24.80
2018-07-27T14:41:47.888Z,25.20
2018-07-27T14:44:15.510Z,25.60
2018-07-27T14:46:43.136Z,25.80
2018-07-27T14:49:11.987Z,25.80
2018-07-27T14:51:40.540Z,26.10
2018-07-27T14:54:09.299Z,26.40
2018-07-27T14:56:37.187Z,26.60
2018-07-27T14:59:05.023Z,27.00
2018-07-27T15:01:32.635Z,27.50
2018-07-27T15:04:00.277Z,27.90
2018-07-27T15:06:27.895Z,28.50
2018-07-27T15:08:55.487Z,28.70
2018-07-27T15:11:23.104Z,29.00
2018-07-27T15:13:50.716Z,29.40
2018-07-27T15:16:18.405Z,29.70
2018-07-27T15:18:46.004Z,29.70
2018-07-27T15:21:13.602Z,29.90
2018-07-27T15:23:41.227Z,29.80
2018-07-27T15:26:08.827Z,29.80
2018-07-27T15:28:36.524Z,29.20
2018-07-27T15:31:04.134Z,28.90
2018-07-27T15:33:32.203Z,28.90
2018-07-27T15:35:59.804Z,29.20
2018-07-27T15:38:27.467Z,29.40
2018-07-27T15:40:55.068Z,30.00
2018-07-27T15:43:22.679Z,30.50
2018-07-27T15:45:50.271Z,30.60
2018-07-27T15:48:17.950Z,30.30
2018-07-27T15:50:45.752Z,30.40
2018-07-27T15:53:13.371Z,30.50
2018-07-27T15:55:40.981Z,30.60
2018-07-27T15:58:08.615Z,30.30
2018-07-27T16:00:36.215Z,29.90
2018-07-27T16:03:03.836Z,29.10
2018-07-27T16:05:31.516Z,28.30
2018-07-27T16:07:59.374Z,27.80
2018-07-27T16:10:27.611Z,27.60
2018-07-27T16:12:55.273Z,27.70
2018-07-27T16:15:22.898Z,27.70
2018-07-27T16:17:50.510Z,27.30
2018-07-27T16:20:18.108Z,27.10
2018-07-27T16:22:45.723Z,27.00
2018-07-27T16:25:13.314Z,26.80
2018-07-27T16:27:40.939Z,26.50
2018-07-27T16:30:08.539Z,26.00
2018-07-27T16:32:36.130Z,26.20
2018-07-27T16:35:03.751Z,25.80
2018-07-27T16:37:31.343Z,25.20
2018-07-27T16:39:58.968Z,25.00
2018-07-27T16:42:26.567Z,24.70
2018-07-27T16:44:54.179Z,24.60
2018-07-27T16:47:21.780Z,24.30
2018-07-27T16:49:49.400Z,24.70
2018-07-27T16:52:17.015Z,24.70
2018-07-27T16:54:44.734Z,25.00
2018-07-27T16:57:12.447Z,25.10
2018-07-27T16:59:40.076Z,25.10
2018-07-27T17:02:07.678Z,24.80
2018-07-27T17:04:35.310Z,24.80
2018-07-27T17:07:03.420Z,24.60
2018-07-27T17:09:31.039Z,24.40
2018-07-27T17:11:58.682Z,24.10
2018-07-27T17:14:26.283Z,23.80
2018-07-27T17:16:53.899Z,23.50
2018-07-27T17:19:21.544Z,23.40
2018-07-27T17:21:49.143Z,23.30
2018-07-27T17:24:16.755Z,23.40
2018-07-27T17:26:44.475Z,23.70
2018-07-27T17:29:12.092Z,23.70
2018-07-27T17:31:39.693Z,23.70
2018-07-27T17:34:07.307Z,23.60
2018-07-27T17:36:34.907Z,23.70
2018-07-27T17:39:02.527Z,23.80
2018-07-27T17:41:30.165Z,23.70
2018-07-27T17:43:57.786Z,23.60
2018-07-27T17:46:25.375Z,23.50
2018-07-27T17:48:53.111Z,23.40
2018-07-27T17:51:20.711Z,23.50
2018-07-27T17:53:48.307Z,23.90
2018-07-27T17:56:15.919Z,24.00
2018-07-27T17:58:43.532Z,24.00
2018-07-27T18:01:11.152Z,24.10
2018-07-27T18:03:38.751Z,24.10
2018-07-27T18:06:06.367Z,24.10
2018-07-27T18:08:34.057Z,24.30
2018-07-27T18:11:01.672Z,24.40
2018-07-27T18:13:29.338Z,24.10
2018-07-27T18:15:57.049Z,23.70
2018-07-27T18:18:24.649Z,23.40
2018-07-27T18:20:52.272Z,23.10
2018-07-27T18:23:19.897Z,22.90
2018-07-27T18:25:47.559Z,22.60
2018-07-27T18:28:15.220Z,22.50
2018-07-27T18:30:42.913Z,22.30
2018-07-27T18:33:10.570Z,22.20
2018-07-27T18:35:38.259Z,22.10
2018-07-27T18:38:05.868Z,22.10
2018-07-27T18:40:33.489Z,22.00
2018-07-27T18:43:01.085Z,21.90
2018-07-27T18:45:28.703Z,21.90
2018-07-27T18:47:56.298Z,21.90
2018-07-27T18:50:23.903Z,21.80
2018-07-27T18:52:51.527Z,21.80
2018-07-27T18:55:19.123Z,21.90
2018-07-27T18:57:46.741Z,21.90
2018-07-27T19:00:14.347Z,22.00
2018-07-27T19:02:41.966Z,21.90
2018-07-27T19:05:09.572Z,21.70
2018-07-27T19:07:37.187Z,21.70
2018-07-27T19:10:05.308Z,21.50
2018-07-27T19:12:32.963Z,21.40
2018-07-27T19:15:00.580Z,21.30
2018-07-27T19:17:28.232Z,21.30
2018-07-27T19:19:55.875Z,21.20
2018-07-27T19:22:23.582Z,21.20
2018-07-27T19:24:51.384Z,21.10
2018-07-27T19:27:19.012Z,21.00
2018-07-27T19:29:46.620Z,21.00
2018-07-27T19:32:14.232Z,21.00
2018-07-27T19:34:41.826Z,21.10
2018-07-27T19:37:09.446Z,21.00
2018-07-27T19:39:37.044Z,21.00
2018-07-27T19:42:04.689Z,21.00
2018-07-27T19:44:32.291Z,21.00
2018-07-27T19:46:59.908Z,20.90
2018-07-27T19:49:27.507Z,20.90
2018-07-27T19:51:55.136Z,20.90
2018-07-27T19:54:22.743Z,20.90
2018-07-27T19:56:50.375Z,20.90
2018-07-27T19:59:17.991Z,20.90
2018-07-27T20:01:45.596Z,21.00
2018-07-27T20:04:13.215Z,21.00
2018-07-27T20:06:40.811Z,20.90
2018-07-27T20:09:08.910Z,20.80
2018-07-27T20:11:36.519Z,20.80
2018-07-27T20:14:04.139Z,20.80
2018-07-27T20:16:31.757Z,20.80
2018-07-27T20:18:59.380Z,20.80
2018-07-27T20:21:27.075Z,20.80
2018-07-27T20:23:54.719Z,20.80
2018-07-27T20:26:22.319Z,20.70
2018-07-27T20:28:49.935Z,20.60
2018-07-27T20:31:17.532Z,20.70
2018-07-27T20:38:39.896Z,20.60
2018-07-27T20:41:07.511Z,20.50
2018-07-27T20:43:35.131Z,20.60
2018-07-27T20:46:02.741Z,20.50
2018-07-27T20:48:30.380Z,20.50
2018-07-27T20:50:57.995Z,20.50
2018-07-27T20:53:25.617Z,20.40
2018-07-27T20:55:53.578Z,20.40
2018-07-27T20:58:21.189Z,20.40
2018-07-27T21:00:48.796Z,20.30
2018-07-27T21:03:16.427Z,20.40
2018-07-27T21:05:44.055Z,20.40
2018-07-27T21:08:11.656Z,20.40
2018-07-27T21:10:39.271Z,20.40
2018-07-27T21:13:06.867Z,20.40
2018-07-27T21:15:34.505Z,20.40
2018-07-27T21:18:02.102Z,20.30
2018-07-27T21:20:29.726Z,20.30
2018-07-27T21:22:57.326Z,20.30
2018-07-27T21:25:24.948Z,20.30
2018-07-27T21:27:52.551Z,20.30
2018-07-27T21:30:20.207Z,20.30
2018-07-27T21:32:47.851Z,20.30
2018-07-27T21:35:15.484Z,20.30
2018-07-27T21:37:43.095Z,20.30
2018-07-27T21:40:10.711Z,20.30
2018-07-27T21:42:38.299Z,20.20
2018-07-27T21:45:06.067Z,20.20
2018-07-27T21:47:33.663Z,20.10
2018-07-27T21:50:01.289Z,20.20
2018-07-27T21:52:28.895Z,20.10
2018-07-27T21:54:56.515Z,20.00
2018-07-27T21:57:24.111Z,20.00
2018-07-27T21:59:51.722Z,19.90
2018-07-27T22:02:19.320Z,20.00
2018-07-27T22:04:47.036Z,20.00
2018-07-27T22:07:14.631Z,20.00
2018-07-27T22:09:42.276Z,20.00
2018-07-27T22:12:09.876Z,20.00
2018-07-27T22:14:37.528Z,19.90
2018-07-27T22:17:05.395Z,19.90
2018-07-27T22:22:00.495Z,19.90
2018-07-27T22:24:28.096Z,19.90
2018-07-27T22:26:55.706Z,19.90
2018-07-27T22:29:23.304Z,19.90
2018-07-27T22:31:50.931Z,19.90
2018-07-27T22:34:18.527Z,19.90
2018-07-27T22:36:46.143Z,19.80
2018-07-27T22:39:13.847Z,19.80
2018-07-27T22:41:41.468Z,19.80
2018-07-27T22:44:09.071Z,19.70
2018-07-27T22:46:36.692Z,19.70
2018-07-27T22:49:04.328Z,19.80
2018-07-27T22:51:31.944Z,19.70
2018-07-27T22:53:59.583Z,19.70
2018-07-27T22:56:27.208Z,19.80
2018-07-27T22:58:54.799Z,19.80
2018-07-27T23:01:22.415Z,19.80
2018-07-27T23:03:50.035Z,19.80
2018-07-27T23:06:17.651Z,19.80
2018-07-27T23:08:45.267Z,19.60
2018-07-27T23:11:12.878Z,19.70
2018-07-27T23:13:40.475Z,19.70
2018-07-27T23:16:08.118Z,19.70
2018-07-27T23:18:35.723Z,19.70
2018-07-27T23:23:30.737Z,19.70
2018-07-27T23:25:58.334Z,19.70
2018-07-27T23:28:25.951Z,19.70
2018-07-27T23:30:53.556Z,19.70
2018-07-27T23:33:21.183Z,19.70
2018-07-27T23:35:48.779Z,19.70
2018-07-27T23:38:16.399Z,19.70
2018-07-27T23:40:43.999Z,19.60
2018-07-27T23:43:11.618Z,19.60
2018-07-27T23:45:39.223Z,19.70
2018-07-27T23:48:06.843Z,19.70
2018-07-27T23:50:34.447Z,19.70
2018-07-27T23:53:02.163Z,19.70
2018-07-27T23:55:29.764Z,19.70
2018-07-27T23:57:57.420Z,19.60
